createdAt,value
2023-05-25T00:01:05.134Z,10.18
2023-05-25T00:03:32.778Z,8.80
2023-05-25T00:06:03.159Z,8.90
2023-05-25T00:08:30.295Z,8.57
2023-05-25T00:10:57.502Z,9.45
2023-05-25T00:13:24.662Z,14.55
2023-05-25T00:15:51.857Z,12.10
2023-05-25T00:18:19.132Z,9.95
2023-05-25T00:20:48.011Z,9.93
2023-05-25T00:23:15.154Z,8.63
2023-05-25T00:25:42.753Z,8.63
2023-05-25T00:28:11.826Z,8.15
2023-05-25T00:30:39.050Z,8.82
2023-05-25T00:33:06.637Z,8.13
2023-05-25T00:35:33.824Z,8.80
2023-05-25T00:38:01.169Z,8.38
2023-05-25T00:40:28.344Z,8.95
2023-05-25T00:42:57.827Z,8.57
2023-05-25T00:45:24.871Z,8.48
2023-05-25T00:47:56.571Z,8.60
2023-05-25T00:50:36.998Z,8.35
2023-05-25T00:53:06.424Z,8.68
2023-05-25T00:55:41.313Z,8.73
2023-05-25T00:58:10.035Z,8.93
2023-05-25T01:00:38.936Z,8.80
2023-05-25T01:03:12.373Z,9.38
2023-05-25T01:05:42.946Z,8.77
2023-05-25T01:08:14.300Z,9.63
2023-05-25T01:10:42.583Z,8.88
2023-05-25T01:13:10.722Z,9.30
2023-05-25T01:15:41.545Z,9.02
2023-05-25T01:18:09.675Z,9.60
2023-05-25T01:20:36.939Z,9.40
2023-05-25T01:23:15.018Z,8.73
2023-05-25T01:25:47.694Z,8.90
2023-05-25T01:28:23.165Z,8.90
2023-05-25T01:30:51.249Z,9.20
2023-05-25T01:33:21.974Z,8.85
2023-05-25T01:35:51.237Z,8.77
2023-05-25T01:38:18.534Z,8.82
2023-05-25T01:40:46.189Z,9.93
2023-05-25T01:43:13.205Z,9.13
2023-05-25T01:45:40.653Z,9.23
2023-05-25T01:48:27.420Z,8.68
2023-05-25T01:51:02.845Z,9.30
2023-05-25T01:53:36.102Z,8.88
2023-05-25T01:56:08.868Z,9.05
2023-05-25T01:58:42.192Z,8.57
2023-05-25T02:01:10.765Z,8.88
2023-05-25T02:03:38.490Z,9.25
2023-05-25T02:06:05.737Z,9.15
2023-05-25T02:08:32.710Z,10.00
2023-05-25T02:10:59.852Z,9.25
2023-05-25T02:13:26.932Z,9.65
2023-05-25T02:15:54.154Z,8.73
2023-05-25T02:18:21.383Z,9.25
2023-05-25T02:20:48.456Z,9.32
2023-05-25T02:23:15.729Z,9.70
2023-05-25T02:25:43.656Z,9.73
2023-05-25T02:28:10.915Z,9.48
2023-05-25T02:30:37.963Z,8.88
2023-05-25T02:33:04.973Z,9.65
2023-05-25T02:35:32.023Z,9.20
2023-05-25T02:37:58.983Z,10.10
2023-05-25T02:40:26.035Z,9.75
2023-05-25T02:42:53.133Z,9.73
2023-05-25T02:45:20.850Z,9.52
2023-05-25T02:47:47.825Z,9.32
2023-05-25T02:50:14.847Z,9.50
2023-05-25T02:52:41.843Z,9.77
2023-05-25T02:55:10.605Z,9.73
2023-05-25T02:57:39.139Z,10.00
2023-05-25T03:00:12.405Z,9.43
2023-05-25T03:02:39.577Z,9.48
2023-05-25T03:05:07.710Z,9.55
2023-05-25T03:07:34.941Z,10.15
2023-05-25T03:10:01.912Z,9.88
2023-05-25T03:12:28.956Z,8.90
2023-05-25T03:14:56.037Z,9.70
2023-05-25T03:17:23.060Z,9.15
2023-05-25T03:19:50.042Z,10.25
2023-05-25T03:22:17.159Z,9.93
2023-05-25T03:24:44.111Z,9.88
2023-05-25T03:27:11.100Z,8.85
2023-05-25T03:29:38.121Z,9.18
2023-05-25T03:32:05.659Z,9.40
2023-05-25T03:34:34.869Z,9.80
2023-05-25T03:37:02.073Z,9.45
2023-05-25T03:39:29.020Z,9.65
2023-05-25T03:41:56.241Z,9.23
2023-05-25T03:44:23.250Z,10.15
2023-05-25T03:46:50.506Z,9.63
2023-05-25T03:49:17.767Z,9.77
2023-05-25T03:51:44.923Z,9.07
2023-05-25T03:54:12.031Z,10.55
2023-05-25T03:56:38.997Z,10.73
2023-05-25T03:59:06.381Z,10.90
2023-05-25T04:01:33.357Z,11.15
2023-05-25T04:04:00.592Z,11.18
2023-05-25T04:06:30.232Z,10.45
2023-05-25T04:08:58.211Z,11.05
2023-05-25T04:11:25.828Z,10.77
2023-05-25T04:13:52.800Z,10.70
2023-05-25T04:16:19.869Z,11.70
2023-05-25T04:18:46.887Z,12.60
2023-05-25T04:21:13.853Z,13.13
2023-05-25T04:23:41.326Z,12.05
2023-05-25T04:26:10.413Z,13.10
2023-05-25T04:28:37.451Z,11.95
2023-05-25T04:31:05.687Z,12.18
2023-05-25T04:33:34.453Z,11.73
2023-05-25T04:36:01.436Z,12.00
2023-05-25T04:38:28.400Z,11.45
2023-05-25T04:40:56.358Z,11.38
2023-05-25T04:43:25.946Z,11.55
2023-05-25T04:45:54.450Z,12.27
2023-05-25T04:48:21.747Z,11.07
2023-05-25T04:50:48.807Z,10.98
2023-05-25T04:53:15.999Z,12.07
2023-05-25T04:55:43.133Z,11.48
2023-05-25T04:58:11.022Z,10.90
2023-05-25T05:00:40.324Z,11.15
2023-05-25T05:03:07.954Z,9.82
2023-05-25T05:05:37.044Z,10.63
2023-05-25T05:08:04.455Z,10.82
2023-05-25T05:10:31.474Z,11.10
2023-05-25T05:12:58.508Z,9.93
2023-05-25T05:15:26.288Z,11.23
2023-05-25T05:17:54.319Z,9.68
2023-05-25T05:20:21.515Z,9.57
2023-05-25T05:22:48.557Z,9.43
2023-05-25T05:25:15.585Z,8.85
2023-05-25T05:27:42.599Z,8.20
2023-05-25T05:30:09.890Z,8.23
2023-05-25T05:32:36.945Z,8.13
2023-05-25T05:35:04.041Z,7.43
2023-05-25T05:37:31.052Z,7.50
2023-05-25T05:39:58.022Z,7.18
2023-05-25T05:42:25.105Z,6.10
2023-05-25T05:44:52.092Z,6.82
2023-05-25T05:47:19.075Z,5.47
2023-05-25T05:49:47.474Z,5.65
2023-05-25T05:52:14.526Z,5.93
2023-05-25T05:54:41.814Z,5.53
2023-05-25T05:57:08.776Z,5.15
2023-05-25T05:59:36.083Z,5.07
2023-05-25T06:02:03.334Z,5.65
2023-05-25T06:04:30.484Z,5.78
2023-05-25T06:06:57.531Z,7.22
2023-05-25T06:09:24.938Z,5.43
2023-05-25T06:11:52.209Z,4.80
2023-05-25T06:14:19.229Z,5.80
2023-05-25T06:16:46.346Z,5.20
2023-05-25T06:19:14.653Z,4.60
2023-05-25T06:21:41.625Z,4.53
2023-05-25T06:24:08.745Z,4.38
2023-05-25T06:26:35.751Z,4.60
2023-05-25T06:29:02.759Z,4.03
2023-05-25T06:31:29.839Z,4.43
2023-05-25T06:33:56.827Z,4.13
2023-05-25T06:36:23.847Z,4.20
2023-05-25T06:38:51.103Z,4.60
2023-05-25T06:41:19.173Z,4.50
2023-05-25T06:43:46.149Z,4.80
2023-05-25T06:46:18.363Z,4.78
2023-05-25T06:48:46.262Z,5.40
2023-05-25T06:51:13.638Z,5.05
2023-05-25T06:53:40.816Z,5.18
2023-05-25T06:56:08.062Z,5.18
2023-05-25T06:58:35.105Z,4.40
2023-05-25T07:01:02.486Z,4.82
2023-05-25T07:03:29.516Z,5.93
2023-05-25T07:05:56.580Z,6.00
2023-05-25T07:08:23.597Z,6.07
2023-05-25T07:10:50.815Z,5.60
2023-05-25T07:13:17.825Z,6.20
2023-05-25T07:15:45.459Z,5.70
2023-05-25T07:28:44.568Z,5.60
2023-05-25T07:31:12.092Z,6.45
2023-05-25T07:33:39.137Z,5.03
2023-05-25T07:36:06.495Z,5.90
2023-05-25T07:38:33.528Z,5.40
2023-05-25T07:41:00.459Z,5.78
2023-05-25T07:43:27.797Z,6.15
2023-05-25T07:45:54.990Z,6.10
2023-05-25T07:48:21.961Z,5.07
2023-05-25T07:50:48.921Z,5.40
2023-05-25T07:53:16.040Z,5.10
2023-05-25T07:55:43.463Z,5.18
2023-05-25T07:58:10.576Z,5.03
2023-05-25T08:00:37.585Z,5.03
2023-05-25T08:03:04.852Z,4.95
2023-05-25T08:05:32.206Z,4.35
2023-05-25T08:07:59.197Z,4.85
2023-05-25T08:10:31.486Z,4.25
2023-05-25T08:12:59.258Z,4.88
2023-05-25T08:15:26.747Z,3.88
2023-05-25T08:17:53.954Z,3.78
2023-05-25T08:20:21.311Z,3.63
2023-05-25T08:22:48.474Z,3.42
2023-05-25T08:25:15.884Z,3.80
2023-05-25T08:27:43.109Z,3.70
2023-05-25T08:30:11.785Z,3.50
2023-05-25T08:32:38.829Z,3.53
2023-05-25T08:35:06.269Z,4.00
2023-05-25T08:37:33.533Z,4.25
2023-05-25T08:40:02.774Z,4.45
2023-05-25T08:42:30.239Z,3.45
2023-05-25T08:44:57.440Z,4.05
2023-05-25T08:47:25.090Z,4.00
2023-05-25T08:49:58.949Z,3.20
2023-05-25T08:52:29.504Z,3.65
2023-05-25T08:54:59.358Z,4.07
2023-05-25T08:57:39.406Z,3.83
2023-05-25T09:00:11.224Z,3.13
2023-05-25T09:03:05.562Z,3.72
2023-05-25T09:05:37.424Z,5.38
2023-05-25T09:08:09.554Z,5.60
2023-05-25T09:10:40.129Z,3.80
2023-05-25T09:15:48.913Z,3.40
2023-05-25T09:18:16.225Z,4.25
2023-05-25T09:20:46.492Z,3.53
2023-05-25T09:23:15.946Z,3.17
2023-05-25T09:25:44.105Z,2.75
2023-05-25T09:30:41.468Z,3.33
2023-05-25T09:33:12.616Z,3.10
2023-05-25T09:35:41.073Z,3.00
2023-05-25T09:38:08.475Z,3.30
2023-05-25T09:40:36.242Z,3.08
2023-05-25T09:43:04.458Z,3.60
2023-05-25T09:45:31.948Z,3.85
2023-05-25T09:48:00.008Z,3.97
2023-05-25T09:50:30.374Z,4.05
2023-05-25T09:53:00.266Z,3.60
2023-05-25T09:55:40.481Z,3.63
2023-05-25T09:58:18.200Z,3.33
2023-05-25T10:00:46.842Z,3.55
2023-05-25T10:03:15.946Z,3.42
2023-05-25T10:05:43.200Z,3.03
2023-05-25T10:08:11.624Z,3.40
2023-05-25T10:10:40.047Z,3.63
2023-05-25T10:13:09.784Z,3.40
2023-05-25T10:15:43.762Z,3.05
2023-05-25T10:18:14.693Z,3.42
2023-05-25T10:20:44.170Z,3.40
2023-05-25T10:23:13.273Z,3.60
2023-05-25T10:25:48.920Z,3.20
2023-05-25T10:28:28.072Z,3.00
2023-05-25T10:31:00.226Z,3.47
2023-05-25T10:33:27.911Z,3.30
2023-05-25T10:36:09.268Z,3.75
2023-05-25T10:38:39.443Z,3.58
2023-05-25T10:41:08.997Z,3.00
2023-05-25T10:43:36.788Z,3.58
2023-05-25T10:46:05.525Z,3.60
2023-05-25T10:48:40.249Z,3.80
2023-05-25T10:51:09.384Z,3.60
2023-05-25T10:53:38.898Z,5.65
2023-05-25T10:56:08.793Z,3.67
2023-05-25T10:58:36.599Z,3.53
2023-05-25T11:01:08.466Z,3.20
2023-05-25T11:03:45.063Z,3.53
2023-05-25T11:06:22.884Z,3.05
2023-05-25T11:08:53.444Z,3.60
2023-05-25T11:13:49.477Z,3.28
2023-05-25T11:16:43.912Z,3.15
2023-05-25T11:19:15.540Z,3.00
2023-05-25T11:21:44.552Z,3.13
2023-05-25T11:24:16.651Z,3.13
2023-05-25T11:27:01.614Z,3.47
2023-05-25T11:29:32.326Z,3.17
2023-05-25T11:34:29.024Z,3.47
2023-05-25T11:37:04.891Z,3.08
2023-05-25T11:39:32.034Z,3.30
2023-05-25T11:42:04.462Z,3.10
2023-05-25T11:44:33.911Z,3.28
2023-05-25T11:47:09.089Z,3.42
2023-05-25T11:49:44.372Z,4.18
2023-05-25T11:52:12.719Z,3.60
2023-05-25T11:54:43.260Z,3.28
2023-05-25T11:57:25.353Z,3.58
2023-05-25T11:59:54.542Z,3.30
2023-05-25T12:02:22.689Z,3.30
2023-05-25T12:05:03.791Z,3.17
2023-05-25T12:07:31.975Z,3.55
2023-05-25T12:10:09.844Z,3.33
2023-05-25T12:12:48.354Z,3.72
2023-05-25T12:15:22.690Z,3.63
2023-05-25T12:17:50.772Z,3.50
2023-05-25T12:20:18.963Z,3.30
2023-05-25T12:22:46.983Z,4.18
2023-05-25T12:25:16.101Z,3.20
2023-05-25T12:27:44.032Z,3.10
2023-05-25T12:30:12.259Z,3.38
2023-05-25T12:33:02.255Z,3.60
2023-05-25T12:35:45.223Z,3.30
2023-05-25T12:38:18.109Z,3.22
2023-05-25T12:40:45.836Z,3.65
2023-05-25T12:43:16.955Z,3.83
2023-05-25T12:45:44.283Z,3.28
2023-05-25T12:48:12.151Z,2.92
2023-05-25T12:50:39.351Z,3.30
2023-05-25T12:53:06.507Z,3.35
2023-05-25T12:55:36.342Z,3.60
2023-05-25T12:58:06.510Z,3.95
2023-05-25T13:00:39.060Z,4.53
2023-05-25T13:03:10.066Z,4.85
2023-05-25T13:05:38.512Z,5.43
2023-05-25T13:08:07.313Z,5.22
2023-05-25T13:10:38.337Z,5.25
2023-05-25T13:13:05.361Z,6.40
2023-05-25T13:15:32.703Z,5.40
2023-05-25T13:17:59.794Z,4.95
2023-05-25T13:20:30.242Z,4.53
2023-05-25T13:22:57.445Z,4.72
2023-05-25T13:25:27.634Z,4.55
2023-05-25T13:27:58.182Z,5.82
2023-05-25T13:30:26.580Z,4.53
2023-05-25T13:32:53.797Z,4.70
2023-05-25T13:35:38.019Z,4.55
2023-05-25T13:38:05.827Z,4.45
2023-05-25T13:40:32.929Z,4.35
2023-05-25T13:43:00.190Z,4.80
2023-05-25T13:45:27.703Z,3.80
2023-05-25T13:47:54.889Z,4.40
2023-05-25T13:50:22.330Z,4.68
2023-05-25T13:52:49.394Z,4.57
2023-05-25T13:55:16.762Z,4.47
2023-05-25T13:57:44.032Z,4.20
2023-05-25T14:00:11.516Z,5.18
2023-05-25T14:02:38.732Z,5.40
2023-05-25T14:05:06.202Z,5.50
2023-05-25T14:07:33.338Z,5.03
2023-05-25T14:10:00.778Z,4.82
2023-05-25T14:12:30.884Z,4.10
2023-05-25T14:14:57.945Z,4.10
2023-05-25T14:17:25.127Z,3.85
2023-05-25T14:19:52.148Z,3.83
2023-05-25T14:22:19.614Z,4.10
2023-05-25T14:24:46.700Z,3.40
2023-05-25T14:27:14.000Z,4.53
2023-05-25T14:29:41.245Z,3.95
2023-05-25T14:32:08.302Z,3.97
2023-05-25T14:34:35.266Z,3.75
2023-05-25T14:37:02.344Z,3.63
2023-05-25T14:39:29.909Z,4.20
2023-05-25T14:41:57.057Z,3.95
2023-05-25T14:44:24.289Z,4.55
2023-05-25T14:46:51.319Z,4.00
2023-05-25T14:49:18.689Z,4.60
2023-05-25T14:51:45.823Z,4.88
2023-05-25T14:54:14.120Z,4.03
2023-05-25T14:56:41.165Z,4.70
2023-05-25T14:59:08.547Z,4.38
2023-05-25T15:01:36.244Z,4.68
2023-05-25T15:04:04.047Z,4.55
2023-05-25T15:06:32.386Z,4.43
2023-05-25T15:08:59.430Z,4.57
2023-05-25T15:11:27.260Z,4.93
2023-05-25T15:13:54.483Z,4.65
2023-05-25T15:16:21.806Z,4.88
2023-05-25T15:18:48.958Z,4.75
2023-05-25T15:21:16.018Z,4.38
2023-05-25T15:23:43.098Z,4.30
2023-05-25T15:26:12.301Z,4.72
2023-05-25T15:28:39.516Z,3.90
2023-05-25T15:31:06.589Z,4.07
2023-05-25T15:33:48.375Z,4.25
2023-05-25T15:36:17.246Z,4.07
2023-05-25T15:38:45.905Z,4.32
2023-05-25T15:41:15.594Z,4.80
2023-05-25T15:43:42.881Z,4.55
2023-05-25T15:46:10.099Z,4.22
2023-05-25T15:48:37.196Z,4.70
2023-05-25T15:51:04.330Z,4.72
2023-05-25T15:53:31.542Z,4.40
2023-05-25T15:55:58.737Z,4.55
2023-05-25T15:58:25.809Z,4.82
2023-05-25T16:00:52.806Z,4.10
2023-05-25T16:03:19.855Z,4.50
2023-05-25T16:05:47.027Z,5.00
2023-05-25T16:08:14.452Z,4.63
2023-05-25T16:10:41.493Z,4.22
2023-05-25T16:13:08.521Z,4.00
2023-05-25T16:15:35.910Z,4.28
2023-05-25T16:18:03.127Z,4.22
2023-05-25T16:20:30.225Z,4.40
2023-05-25T16:22:57.303Z,4.70
2023-05-25T16:25:24.370Z,3.80
2023-05-25T16:27:51.542Z,4.50
2023-05-25T16:30:18.719Z,4.50
2023-05-25T16:32:46.091Z,4.20
2023-05-25T16:35:13.616Z,3.97
2023-05-25T16:37:41.105Z,4.18
2023-05-25T16:40:08.824Z,3.70
2023-05-25T16:42:38.969Z,4.32
2023-05-25T16:45:06.892Z,3.80
2023-05-25T16:47:34.167Z,3.97
2023-05-25T16:50:01.287Z,3.75
2023-05-25T16:52:28.840Z,3.67
2023-05-25T16:54:56.540Z,4.15
2023-05-25T16:57:23.817Z,3.60
2023-05-25T16:59:53.027Z,3.75
2023-05-25T17:02:21.387Z,3.55
2023-05-25T17:04:48.558Z,4.10
2023-05-25T17:07:15.835Z,4.07
2023-05-25T17:09:43.026Z,3.45
2023-05-25T17:12:10.242Z,4.00
2023-05-25T17:14:37.287Z,3.90
2023-05-25T17:17:04.442Z,3.58
2023-05-25T17:19:31.759Z,3.83
2023-05-25T17:21:58.904Z,3.40
2023-05-25T17:24:26.178Z,3.33
2023-05-25T17:26:53.432Z,3.65
2023-05-25T17:29:20.589Z,3.33
2023-05-25T17:31:48.794Z,3.10
2023-05-25T17:34:16.688Z,3.35
2023-05-25T17:36:43.877Z,3.72
2023-05-25T17:39:10.974Z,3.40
2023-05-25T17:41:37.985Z,3.05
2023-05-25T17:44:04.977Z,3.10
2023-05-25T17:46:32.067Z,2.95
2023-05-25T17:48:59.112Z,3.10
2023-05-25T17:51:26.186Z,3.05
2023-05-25T17:53:53.267Z,2.80
2023-05-25T17:56:20.327Z,3.03
2023-05-25T17:58:47.875Z,3.13
2023-05-25T18:01:16.136Z,3.03
2023-05-25T18:03:43.740Z,2.85
2023-05-25T18:06:11.036Z,2.92
2023-05-25T18:08:39.211Z,3.10
2023-05-25T18:11:06.262Z,3.10
2023-05-25T18:13:33.250Z,3.20
2023-05-25T18:16:00.236Z,3.25
2023-05-25T18:18:27.345Z,3.10
2023-05-25T18:20:54.381Z,3.00
2023-05-25T18:23:22.389Z,2.67
2023-05-25T18:25:50.829Z,2.67
2023-05-25T18:28:17.871Z,2.90
2023-05-25T18:30:45.287Z,2.25
2023-05-25T18:33:12.793Z,3.00
2023-05-25T18:35:40.268Z,3.08
2023-05-25T18:38:07.395Z,2.65
2023-05-25T18:40:34.371Z,2.80
2023-05-25T18:43:01.347Z,2.60
2023-05-25T18:45:28.351Z,2.50
2023-05-25T18:47:55.518Z,2.38
2023-05-25T18:50:22.600Z,2.50
2023-05-25T18:52:51.597Z,2.30
2023-05-25T18:55:19.414Z,2.83
2023-05-25T18:57:47.003Z,2.40
2023-05-25T19:00:14.589Z,2.17
2023-05-25T19:02:41.920Z,2.45
2023-05-25T19:05:11.922Z,2.75
2023-05-25T19:07:51.002Z,3.10
2023-05-25T19:10:25.457Z,2.90
2023-05-25T19:12:52.660Z,2.60
2023-05-25T19:15:19.718Z,3.60
2023-05-25T19:17:49.855Z,5.35
2023-05-25T19:20:17.322Z,2.90
2023-05-25T19:22:44.662Z,2.75
2023-05-25T19:25:17.580Z,2.67
2023-05-25T19:27:44.852Z,3.05
2023-05-25T19:30:12.717Z,2.90
2023-05-25T19:32:39.786Z,3.10
2023-05-25T19:35:07.071Z,2.90
2023-05-25T19:37:34.605Z,3.05
2023-05-25T19:40:01.641Z,3.20
2023-05-25T19:42:28.867Z,3.00
2023-05-25T19:44:55.940Z,2.90
2023-05-25T19:47:23.126Z,2.95
2023-05-25T19:49:50.143Z,2.80
2023-05-25T19:52:18.026Z,3.53
2023-05-25T19:54:45.249Z,2.95
2023-05-25T19:57:12.328Z,3.00
2023-05-25T19:59:39.369Z,2.72
2023-05-25T20:02:06.596Z,3.33
2023-05-25T20:04:34.294Z,2.78
2023-05-25T20:07:03.803Z,2.45
2023-05-25T20:09:38.627Z,2.60
2023-05-25T20:12:08.539Z,3.15
2023-05-25T20:14:35.755Z,3.90
2023-05-25T20:17:03.046Z,2.80
2023-05-25T20:19:30.057Z,2.80
2023-05-25T20:21:58.097Z,3.15
2023-05-25T20:24:25.140Z,2.92
2023-05-25T20:26:56.837Z,2.72
2023-05-25T20:29:24.256Z,2.50
2023-05-25T20:31:52.318Z,2.80
2023-05-25T20:34:19.651Z,3.03
2023-05-25T20:36:47.138Z,2.60
2023-05-25T20:39:14.470Z,3.00
2023-05-25T20:41:41.752Z,2.08
2023-05-25T20:44:10.195Z,2.63
2023-05-25T20:46:37.494Z,2.83
2023-05-25T20:49:04.836Z,2.67
2023-05-25T20:51:32.759Z,2.40
2023-05-25T20:53:59.836Z,2.20
2023-05-25T20:56:27.360Z,1.83
2023-05-25T20:58:54.429Z,2.30
2023-05-25T21:01:21.596Z,2.17
2023-05-25T21:03:48.859Z,2.00
2023-05-25T21:06:16.225Z,1.98
2023-05-25T21:08:43.512Z,1.50
2023-05-25T21:11:10.899Z,1.58
2023-05-25T21:13:37.872Z,1.30
2023-05-25T21:16:05.168Z,1.00
2023-05-25T21:18:32.268Z,1.17
2023-05-25T21:20:59.485Z,1.40
2023-05-25T21:23:28.810Z,1.25
2023-05-25T21:25:56.001Z,1.20
2023-05-25T21:28:23.940Z,1.30
2023-05-25T21:30:51.134Z,0.77
2023-05-25T21:33:18.276Z,1.52
2023-05-25T21:35:45.628Z,1.23
2023-05-25T21:38:12.932Z,1.05
2023-05-25T21:40:40.029Z,1.30
2023-05-25T21:43:09.219Z,0.90
2023-05-25T21:45:36.460Z,1.02
2023-05-25T21:48:04.886Z,1.20
2023-05-25T21:50:32.109Z,1.33
2023-05-25T21:52:59.216Z,1.73
2023-05-25T21:55:26.224Z,2.05
2023-05-25T21:57:53.292Z,1.30
2023-05-25T22:00:20.534Z,1.20
2023-05-25T22:02:47.751Z,0.95
2023-05-25T22:05:15.959Z,0.93
2023-05-25T22:07:43.062Z,1.13
2023-05-25T22:10:10.342Z,0.88
2023-05-25T22:12:37.604Z,0.90
2023-05-25T22:15:06.635Z,0.90
2023-05-25T22:17:33.941Z,1.10
2023-05-25T22:20:07.943Z,0.68
2023-05-25T22:22:37.529Z,1.10
2023-05-25T22:25:05.174Z,0.90
2023-05-25T22:27:33.188Z,0.98
2023-05-25T22:30:01.088Z,1.05
2023-05-25T22:32:28.178Z,1.02
2023-05-25T22:34:55.308Z,0.82
2023-05-25T22:37:22.352Z,0.90
2023-05-25T22:39:50.992Z,0.90
2023-05-25T22:42:18.310Z,1.08
2023-05-25T22:44:45.657Z,1.10
2023-05-25T22:47:12.723Z,1.25
2023-05-25T22:49:43.142Z,1.02
2023-05-25T22:52:12.209Z,0.93
2023-05-25T22:54:39.918Z,1.20
2023-05-25T22:57:08.226Z,0.95
2023-05-25T22:59:35.617Z,1.13
2023-05-25T23:02:02.685Z,1.00
2023-05-25T23:04:29.927Z,1.77
2023-05-25T23:06:57.157Z,1.33
2023-05-25T23:09:24.207Z,1.80
2023-05-25T23:11:51.300Z,4.90
2023-05-25T23:14:18.380Z,3.60
2023-05-25T23:16:48.916Z,3.42
2023-05-25T23:19:17.147Z,4.45
2023-05-25T23:21:44.432Z,3.50
2023-05-25T23:24:11.500Z,3.60
2023-05-25T23:26:38.551Z,2.20
2023-05-25T23:29:05.828Z,1.70
2023-05-25T23:31:33.100Z,1.52
2023-05-25T23:34:00.189Z,1.30
2023-05-25T23:36:28.448Z,3.03
2023-05-25T23:38:55.819Z,2.72
2023-05-25T23:41:23.507Z,5.30
2023-05-25T23:43:50.635Z,4.50
2023-05-25T23:46:17.932Z,3.17
2023-05-25T23:48:46.011Z,1.83
2023-05-25T23:51:13.245Z,2.58
2023-05-25T23:53:40.334Z,1.63
2023-05-25T23:56:07.593Z,1.20
2023-05-25T23:58:35.142Z,1.50
